createdAt,value
2018-10-16T00:01:12.308Z,89.00
2018-10-16T00:03:40.834Z,89.10
2018-10-16T00:06:09.851Z,89.50
2018-10-16T00:08:38.700Z,89.50
2018-10-16T00:11:07.179Z,89.50
2018-10-16T00:13:35.743Z,89.40
2018-10-16T00:16:04.470Z,90.10
2018-10-16T00:18:34.001Z,90.10
2018-10-16T00:21:02.351Z,90.00
2018-10-16T00:23:30.853Z,90.00
2018-10-16T00:25:59.254Z,89.40
2018-10-16T00:28:28.133Z,88.90
2018-10-16T00:30:56.635Z,89.00
2018-10-16T00:33:25.051Z,88.90
2018-10-16T00:35:53.714Z,88.00
2018-10-16T00:38:22.137Z,87.20
2018-10-16T00:40:50.607Z,86.10
2018-10-16T00:43:19.079Z,85.60
2018-10-16T00:45:47.481Z,85.10
2018-10-16T00:48:15.881Z,85.80
2018-10-16T00:50:44.377Z,85.80
2018-10-16T00:53:13.680Z,85.70
2018-10-16T00:55:42.183Z,86.80
2018-10-16T00:58:10.685Z,87.80
2018-10-16T01:00:39.169Z,88.30
2018-10-16T01:03:08.669Z,89.70
2018-10-16T01:05:37.116Z,90.50
2018-10-16T01:08:05.879Z,90.30
2018-10-16T01:10:34.634Z,90.40
2018-10-16T01:13:03.154Z,90.50
2018-10-16T01:15:32.778Z,90.50
2018-10-16T01:18:01.190Z,90.60
2018-10-16T01:20:30.216Z,90.70
2018-10-16T01:22:58.976Z,90.60
2018-10-16T01:25:27.354Z,90.60
2018-10-16T01:27:55.744Z,90.70
2018-10-16T01:30:24.453Z,90.80
2018-10-16T01:32:53.052Z,90.70
2018-10-16T01:35:21.745Z,90.70
2018-10-16T01:37:50.274Z,90.50
2018-10-16T01:40:19.173Z,90.40
2018-10-16T01:42:47.679Z,90.20
2018-10-16T01:45:16.085Z,90.00
2018-10-16T01:47:45.182Z,89.80
2018-10-16T01:50:13.707Z,89.40
2018-10-16T01:52:42.176Z,88.80
2018-10-16T01:55:10.906Z,87.90
2018-10-16T01:57:39.337Z,87.90
2018-10-16T02:00:09.573Z,86.70
2018-10-16T02:02:38.073Z,85.90
2018-10-16T02:05:07.401Z,86.50
2018-10-16T02:07:36.302Z,84.80
2018-10-16T02:10:04.915Z,84.10
2018-10-16T02:12:33.377Z,84.20
2018-10-16T02:15:01.727Z,83.90
2018-10-16T02:17:30.436Z,83.50
2018-10-16T02:19:58.850Z,83.40
2018-10-16T02:22:27.500Z,83.40
2018-10-16T02:24:56.107Z,83.30
2018-10-16T02:27:24.486Z,83.60
2018-10-16T02:29:52.973Z,83.40
2018-10-16T02:32:21.958Z,82.60
2018-10-16T02:34:50.705Z,81.80
2018-10-16T02:37:19.138Z,78.60
2018-10-16T02:39:47.608Z,77.30
2018-10-16T02:42:16.313Z,76.50
2018-10-16T02:44:44.686Z,75.30
2018-10-16T02:47:13.162Z,74.30
2018-10-16T02:49:41.615Z,73.30
2018-10-16T02:52:09.973Z,72.80
2018-10-16T02:54:38.390Z,72.60
2018-10-16T02:57:07.164Z,72.50
2018-10-16T02:59:35.728Z,72.80
2018-10-16T03:02:04.192Z,73.70
2018-10-16T03:04:32.597Z,73.90
2018-10-16T03:07:01.054Z,74.20
2018-10-16T03:09:29.494Z,74.50
2018-10-16T03:11:57.996Z,74.50
2018-10-16T03:14:26.509Z,75.00
2018-10-16T03:16:54.933Z,75.30
2018-10-16T03:19:23.277Z,75.60
2018-10-16T03:21:51.793Z,75.70
2018-10-16T03:24:20.487Z,75.40
2018-10-16T03:26:48.935Z,75.50
2018-10-16T03:29:17.445Z,75.30
2018-10-16T03:31:45.988Z,75.00
2018-10-16T03:34:14.452Z,73.80
2018-10-16T03:36:42.876Z,73.80
2018-10-16T03:39:12.593Z,73.20
2018-10-16T03:41:41.112Z,73.60
2018-10-16T03:44:11.490Z,74.20
2018-10-16T03:46:39.944Z,73.50
2018-10-16T03:49:09.134Z,74.10
2018-10-16T03:51:37.676Z,72.90
2018-10-16T03:54:06.454Z,73.70
2018-10-16T03:56:34.907Z,73.30
2018-10-16T03:59:03.602Z,72.40
2018-10-16T04:01:32.003Z,73.30
2018-10-16T04:04:00.669Z,73.60
2018-10-16T04:06:29.222Z,73.80
2018-10-16T04:08:58.143Z,73.70
2018-10-16T04:11:26.629Z,73.80
2018-10-16T04:13:55.120Z,74.00
2018-10-16T04:16:23.559Z,74.10
2018-10-16T04:18:52.734Z,73.60
2018-10-16T04:21:21.458Z,73.40
2018-10-16T04:23:49.900Z,73.30
2018-10-16T04:26:18.330Z,74.40
2018-10-16T04:28:47.163Z,73.00
2018-10-16T04:31:15.835Z,71.60
2018-10-16T04:33:44.384Z,72.10
2018-10-16T04:36:12.956Z,71.90
2018-10-16T04:38:41.701Z,72.00
2018-10-16T04:41:10.105Z,72.10
2018-10-16T04:43:38.681Z,72.40
2018-10-16T04:46:07.211Z,72.80
2018-10-16T04:48:35.669Z,72.60
2018-10-16T04:51:04.991Z,72.30
2018-10-16T04:53:33.490Z,72.50
2018-10-16T04:56:02.080Z,72.90
2018-10-16T04:58:30.729Z,73.40
2018-10-16T05:00:59.119Z,74.10
2018-10-16T05:03:27.576Z,73.40
2018-10-16T05:05:56.517Z,73.10
2018-10-16T05:08:24.969Z,73.40
2018-10-16T05:10:53.694Z,73.10
2018-10-16T05:13:22.401Z,73.00
2018-10-16T05:15:50.942Z,73.10
2018-10-16T05:18:19.603Z,73.00
2018-10-16T05:20:48.033Z,72.20
2018-10-16T05:23:16.732Z,71.90
2018-10-16T05:25:45.205Z,71.50
2018-10-16T05:28:13.658Z,71.50
2018-10-16T05:30:42.120Z,71.10
2018-10-16T05:33:10.500Z,71.40
2018-10-16T05:35:38.927Z,71.80
2018-10-16T05:38:07.401Z,72.10
2018-10-16T05:40:35.947Z,72.60
2018-10-16T05:43:04.821Z,72.50
2018-10-16T05:45:35.153Z,72.60
2018-10-16T05:48:03.541Z,72.90
2018-10-16T05:50:31.941Z,73.40
2018-10-16T05:53:00.616Z,73.00
2018-10-16T05:55:29.027Z,74.00
2018-10-16T05:57:57.495Z,73.70
2018-10-16T06:00:34.641Z,74.00
2018-10-16T06:03:03.198Z,72.80
2018-10-16T06:05:32.849Z,71.10
2018-10-16T06:08:02.313Z,71.70
2018-10-16T06:10:30.867Z,70.90
2018-10-16T06:12:59.408Z,71.50
2018-10-16T06:15:28.078Z,71.70
2018-10-16T06:17:56.564Z,70.80
2018-10-16T06:20:25.061Z,69.50
2018-10-16T06:22:53.523Z,68.60
2018-10-16T06:25:21.987Z,68.60
2018-10-16T06:27:50.461Z,68.60
2018-10-16T06:30:19.856Z,68.90
2018-10-16T06:32:48.468Z,69.70
2018-10-16T06:35:17.106Z,70.00
2018-10-16T06:37:45.586Z,69.80
2018-10-16T06:40:14.071Z,69.40
2018-10-16T06:42:42.698Z,69.20
2018-10-16T06:45:11.548Z,68.70
2018-10-16T06:47:40.042Z,68.80
2018-10-16T06:50:10.165Z,66.70
2018-10-16T06:52:38.682Z,66.10
2018-10-16T06:55:07.187Z,66.30
2018-10-16T06:57:36.409Z,65.40
2018-10-16T07:00:06.628Z,63.90
2018-10-16T07:02:35.146Z,62.60
2018-10-16T07:05:03.857Z,62.30
2018-10-16T07:07:32.734Z,61.40
2018-10-16T07:10:01.143Z,60.00
2018-10-16T07:12:29.546Z,59.20
2018-10-16T07:14:58.093Z,54.90
2018-10-16T07:17:26.533Z,51.70
2018-10-16T07:19:55.055Z,46.60
2018-10-16T07:22:23.518Z,46.20
2018-10-16T07:24:51.993Z,45.00
2018-10-16T07:27:20.484Z,46.30
2018-10-16T07:29:49.085Z,48.50
2018-10-16T07:32:17.644Z,49.00
2018-10-16T07:34:46.099Z,49.30
2018-10-16T07:37:14.829Z,49.20
2018-10-16T07:39:43.241Z,49.00
2018-10-16T07:42:11.770Z,49.70
2018-10-16T07:44:40.335Z,51.00
2018-10-16T07:47:09.212Z,50.20
2018-10-16T07:49:38.577Z,50.90
2018-10-16T07:52:07.115Z,50.40
2018-10-16T07:54:35.827Z,50.60
2018-10-16T07:57:04.943Z,46.90
2018-10-16T07:59:33.446Z,40.10
2018-10-16T08:02:02.159Z,41.30
2018-10-16T08:04:30.714Z,36.80
2018-10-16T08:06:59.135Z,31.70
2018-10-16T08:09:27.650Z,29.30
2018-10-16T08:11:56.222Z,24.00
2018-10-16T08:14:24.743Z,20.50
2018-10-16T08:16:53.494Z,14.80
2018-10-16T08:19:21.940Z,10.50
2018-10-16T08:21:50.342Z,9.00
2018-10-16T08:24:18.840Z,10.80
2018-10-16T08:26:47.434Z,12.10
2018-10-16T08:29:15.850Z,13.40
2018-10-16T08:31:44.363Z,13.80
2018-10-16T08:34:13.764Z,14.40
2018-10-16T08:36:42.615Z,13.50
2018-10-16T08:39:17.503Z,10.00
2018-10-16T08:41:55.150Z,7.10
2018-10-16T08:44:32.893Z,4.20
2018-10-16T08:47:10.648Z,2.20
2018-10-16T08:49:48.866Z,1.00
2018-10-16T08:52:17.233Z,1.00
2018-10-16T08:54:45.871Z,1.00
2018-10-16T08:57:15.013Z,1.00
2018-10-16T08:59:43.869Z,1.00
2018-10-16T09:02:12.589Z,1.00
2018-10-16T09:04:41.483Z,1.00
2018-10-16T09:07:10.246Z,1.00
2018-10-16T09:09:39.048Z,1.00
2018-10-16T09:12:08.376Z,1.00
2018-10-16T09:14:37.526Z,1.00
2018-10-16T09:17:06.582Z,1.00
2018-10-16T09:19:35.195Z,1.00
2018-10-16T09:22:04.301Z,1.00
2018-10-16T09:24:33.735Z,1.00
2018-10-16T09:27:02.536Z,1.00
2018-10-16T09:29:31.026Z,1.00
2018-10-16T09:32:01.795Z,1.00
2018-10-16T09:34:32.641Z,1.00
2018-10-16T09:37:01.738Z,1.00
2018-10-16T09:39:30.707Z,1.00
2018-10-16T09:44:43.539Z,1.00
2018-10-16T09:47:12.736Z,1.00
2018-10-16T09:49:41.587Z,1.00
2018-10-16T09:52:11.886Z,1.00
2018-10-16T09:54:41.203Z,1.00
2018-10-16T09:57:09.997Z,1.00
2018-10-16T09:59:40.858Z,1.00
2018-10-16T10:02:09.786Z,1.00
2018-10-16T10:04:38.482Z,1.00
2018-10-16T10:07:07.781Z,1.00
2018-10-16T10:09:36.692Z,1.00
2018-10-16T10:12:05.908Z,1.00
2018-10-16T10:14:34.508Z,1.00
2018-10-16T10:17:03.117Z,1.00
2018-10-16T10:19:31.875Z,1.00
2018-10-16T10:22:01.499Z,1.00
2018-10-16T10:24:30.887Z,1.00
2018-10-16T10:27:00.571Z,1.00
2018-10-16T10:29:29.387Z,1.00
2018-10-16T10:31:59.280Z,1.00
2018-10-16T10:34:28.786Z,1.00
2018-10-16T10:36:58.949Z,1.00
2018-10-16T10:39:29.104Z,1.00
2018-10-16T10:41:58.760Z,1.00
2018-10-16T10:44:27.835Z,1.00
2018-10-16T10:46:56.407Z,1.00
2018-10-16T10:49:25.438Z,1.00
2018-10-16T10:51:53.816Z,1.00
2018-10-16T10:54:22.451Z,1.00
2018-10-16T10:56:52.041Z,1.00
2018-10-16T10:59:20.502Z,1.00
2018-10-16T11:01:49.175Z,1.00
2018-10-16T11:04:17.622Z,1.00
2018-10-16T11:06:46.055Z,1.00
2018-10-16T11:09:16.304Z,1.00
2018-10-16T11:11:48.742Z,1.00
2018-10-16T11:14:17.830Z,1.00
2018-10-16T11:16:46.545Z,1.00
2018-10-16T11:19:15.310Z,1.00
2018-10-16T11:21:43.794Z,1.00
2018-10-16T11:24:13.327Z,1.00
2018-10-16T11:26:41.747Z,1.00
2018-10-16T11:29:10.330Z,1.00
2018-10-16T11:31:39.441Z,1.00
2018-10-16T11:34:08.203Z,1.20
2018-10-16T11:36:36.829Z,1.60
2018-10-16T11:39:07.696Z,2.20
2018-10-16T11:41:36.299Z,2.50
2018-10-16T11:44:04.896Z,2.90
2018-10-16T11:46:33.528Z,3.60
2018-10-16T11:49:19.308Z,3.40
2018-10-16T11:51:52.699Z,3.70
2018-10-16T11:54:21.175Z,3.90
2018-10-16T11:59:47.320Z,3.70
2018-10-16T12:02:16.670Z,4.00
2018-10-16T12:04:46.113Z,3.50
2018-10-16T12:07:15.092Z,3.40
2018-10-16T12:09:44.649Z,3.40
2018-10-16T12:12:13.251Z,3.10
2018-10-16T12:14:41.964Z,3.00
2018-10-16T12:17:14.785Z,3.20
2018-10-16T12:19:52.101Z,3.00
2018-10-16T12:22:22.294Z,2.70
2018-10-16T12:28:07.650Z,3.00
2018-10-16T12:30:43.736Z,2.60
2018-10-16T12:33:13.693Z,2.50
2018-10-16T12:35:45.524Z,2.40
2018-10-16T12:38:14.423Z,2.00
2018-10-16T12:40:45.210Z,2.10
2018-10-16T12:43:14.031Z,1.50
2018-10-16T12:45:48.496Z,1.20
2018-10-16T12:48:18.082Z,1.40
2018-10-16T12:50:47.534Z,1.40
2018-10-16T12:53:17.283Z,1.50
2018-10-16T12:55:48.520Z,1.50
2018-10-16T12:58:18.939Z,1.50
2018-10-16T13:00:51.744Z,1.90
2018-10-16T13:03:20.596Z,2.20
2018-10-16T13:05:51.583Z,1.80
2018-10-16T13:08:21.176Z,2.20
2018-10-16T13:10:51.997Z,2.50
2018-10-16T13:13:21.654Z,2.20
2018-10-16T13:15:52.261Z,2.30
2018-10-16T13:18:20.768Z,2.60
2018-10-16T13:20:49.280Z,2.00
2018-10-16T13:23:18.963Z,1.90
2018-10-16T13:25:48.163Z,2.00
2018-10-16T13:28:17.075Z,2.10
2018-10-16T13:30:47.457Z,1.70
2018-10-16T13:33:15.971Z,1.00
2018-10-16T13:35:45.045Z,1.00
2018-10-16T13:38:14.408Z,1.00
2018-10-16T13:40:43.585Z,1.00
2018-10-16T13:43:12.884Z,1.00
2018-10-16T13:45:42.191Z,1.00
2018-10-16T13:48:10.827Z,1.00
2018-10-16T13:50:39.253Z,1.00
2018-10-16T13:53:08.943Z,1.00
2018-10-16T13:55:37.392Z,1.00
2018-10-16T13:58:06.346Z,1.00
2018-10-16T14:00:34.808Z,1.00
2018-10-16T14:03:03.263Z,1.00
2018-10-16T14:05:31.709Z,1.00
2018-10-16T14:08:00.977Z,1.00
2018-10-16T14:10:29.699Z,1.00
2018-10-16T14:12:59.058Z,1.00
2018-10-16T14:15:27.597Z,1.00
2018-10-16T14:17:56.088Z,1.00
2018-10-16T14:20:24.525Z,1.00
2018-10-16T14:22:53.080Z,1.00
2018-10-16T14:25:23.195Z,1.00
2018-10-16T14:27:53.457Z,1.00
2018-10-16T14:30:22.554Z,1.00
2018-10-16T14:32:52.223Z,1.00
2018-10-16T14:35:21.538Z,1.00
2018-10-16T14:37:51.337Z,1.00
2018-10-16T14:40:20.188Z,1.10
2018-10-16T14:42:49.388Z,1.00
2018-10-16T14:45:19.064Z,2.20
2018-10-16T14:47:51.402Z,2.10
2018-10-16T14:50:22.589Z,2.20
2018-10-16T14:52:53.995Z,2.40
2018-10-16T14:55:23.866Z,2.50
2018-10-16T14:57:52.711Z,2.60
2018-10-16T15:00:22.372Z,2.30
2018-10-16T15:02:51.387Z,2.00
2018-10-16T15:05:20.621Z,2.30
2018-10-16T15:07:49.225Z,2.40
2018-10-16T15:10:19.893Z,2.40
2018-10-16T15:12:50.394Z,2.90
2018-10-16T15:15:19.321Z,3.30
2018-10-16T15:17:48.647Z,3.50
2018-10-16T15:20:21.790Z,3.80
2018-10-16T15:22:54.197Z,3.80
2018-10-16T15:25:24.974Z,4.20
2018-10-16T15:27:53.989Z,4.30
2018-10-16T15:30:22.538Z,4.40
2018-10-16T15:32:51.086Z,4.50
2018-10-16T15:35:19.914Z,5.00
2018-10-16T15:37:49.303Z,5.20
2018-10-16T15:40:21.086Z,5.40
2018-10-16T15:42:50.105Z,5.50
2018-10-16T15:45:19.322Z,6.10
2018-10-16T15:47:47.880Z,6.30
2018-10-16T15:50:17.287Z,6.70
2018-10-16T15:52:46.817Z,7.10
2018-10-16T15:55:16.023Z,7.20
2018-10-16T15:57:46.008Z,7.40
2018-10-16T16:00:17.490Z,7.50
2018-10-16T16:02:45.947Z,8.20
2018-10-16T16:05:15.116Z,8.10
2018-10-16T16:07:45.063Z,8.10
2018-10-16T16:10:15.068Z,8.80
2018-10-16T16:12:43.574Z,9.30
2018-10-16T16:15:13.077Z,10.50
2018-10-16T16:17:43.151Z,10.20
2018-10-16T16:20:13.304Z,11.00
2018-10-16T16:22:41.728Z,11.30
2018-10-16T16:25:11.816Z,11.90
2018-10-16T16:27:41.760Z,12.50
2018-10-16T16:30:13.369Z,13.10
2018-10-16T16:32:42.846Z,13.30
2018-10-16T16:35:12.160Z,13.70
2018-10-16T16:37:42.510Z,14.00
2018-10-16T16:40:13.509Z,14.20
2018-10-16T16:42:42.186Z,14.80
2018-10-16T16:45:15.357Z,15.00
2018-10-16T16:47:45.132Z,15.70
2018-10-16T16:50:15.129Z,16.00
2018-10-16T16:52:43.627Z,16.00
2018-10-16T16:55:13.488Z,16.30
2018-10-16T16:57:41.985Z,16.80
2018-10-16T17:00:12.384Z,17.10
2018-10-16T17:02:42.082Z,17.40
2018-10-16T17:05:11.601Z,18.00
2018-10-16T17:07:40.791Z,18.20
2018-10-16T17:10:09.893Z,18.50
2018-10-16T17:12:39.111Z,18.90
2018-10-16T17:15:09.763Z,19.00
2018-10-16T17:17:38.799Z,19.30
2018-10-16T17:20:08.305Z,19.60
2018-10-16T17:22:36.902Z,20.00
2018-10-16T17:25:06.736Z,20.40
2018-10-16T17:27:34.969Z,20.90
2018-10-16T17:30:03.531Z,21.10
2018-10-16T17:32:32.037Z,21.00
2018-10-16T17:35:00.514Z,21.20
2018-10-16T17:37:28.985Z,21.80
2018-10-16T17:39:57.839Z,22.40
2018-10-16T17:42:26.419Z,23.30
2018-10-16T17:44:58.767Z,23.80
2018-10-16T17:47:27.213Z,23.70
2018-10-16T17:49:55.916Z,24.30
2018-10-16T17:52:25.294Z,25.00
2018-10-16T17:54:53.998Z,25.70
2018-10-16T17:57:22.889Z,26.70
2018-10-16T17:59:51.600Z,26.80
2018-10-16T18:02:20.115Z,27.50
2018-10-16T18:04:48.722Z,27.80
2018-10-16T18:07:17.152Z,28.50
2018-10-16T18:09:45.610Z,28.60
2018-10-16T18:12:14.541Z,29.20
2018-10-16T18:14:43.191Z,30.50
2018-10-16T18:17:12.054Z,31.90
2018-10-16T18:19:40.482Z,31.90
2018-10-16T18:22:08.954Z,32.00
2018-10-16T18:24:37.575Z,32.80
2018-10-16T18:27:06.267Z,33.40
2018-10-16T18:29:34.908Z,34.40
2018-10-16T18:32:03.484Z,35.30
2018-10-16T18:34:31.839Z,36.60
2018-10-16T18:37:00.309Z,37.10
2018-10-16T18:39:30.309Z,37.80
2018-10-16T18:41:59.432Z,39.50
2018-10-16T18:44:28.630Z,39.60
2018-10-16T18:46:57.133Z,42.10
2018-10-16T18:49:25.890Z,43.60
2018-10-16T18:51:54.345Z,45.80
2018-10-16T18:54:23.630Z,46.70
2018-10-16T18:56:52.003Z,47.50
2018-10-16T18:59:20.772Z,47.60
2018-10-16T19:01:50.064Z,48.20
2018-10-16T19:04:19.732Z,49.80
2018-10-16T19:06:48.461Z,52.00
2018-10-16T19:09:17.264Z,54.10
2018-10-16T19:11:45.607Z,55.20
2018-10-16T19:14:14.233Z,56.50
2018-10-16T19:16:42.701Z,57.60
2018-10-16T19:19:12.174Z,58.70
2018-10-16T19:21:40.734Z,59.60
2018-10-16T19:24:09.420Z,59.80
2018-10-16T19:26:38.576Z,60.10
2018-10-16T19:29:07.495Z,60.00
2018-10-16T19:31:37.773Z,60.20
2018-10-16T19:34:06.452Z,60.00
2018-10-16T19:36:35.265Z,60.00
2018-10-16T19:39:04.597Z,60.60
2018-10-16T19:41:33.121Z,61.10
2018-10-16T19:44:01.749Z,61.60
2018-10-16T19:46:30.397Z,63.00
2018-10-16T19:48:59.152Z,63.50
2018-10-16T19:51:27.689Z,64.40
2018-10-16T19:53:56.334Z,65.10
2018-10-16T19:56:24.827Z,66.10
2018-10-16T19:58:53.236Z,67.10
2018-10-16T20:01:22.080Z,67.70
2018-10-16T20:03:50.808Z,68.60
2018-10-16T20:06:19.453Z,69.10
2018-10-16T20:08:48.651Z,69.60
2018-10-16T20:11:16.965Z,70.00
2018-10-16T20:13:45.657Z,70.40
2018-10-16T20:16:14.364Z,70.80
2018-10-16T20:18:43.585Z,70.80
2018-10-16T20:21:12.289Z,70.80
2018-10-16T20:23:40.784Z,71.10
2018-10-16T20:26:10.308Z,71.10
2018-10-16T20:28:39.613Z,71.20
2018-10-16T20:31:08.351Z,71.80
2018-10-16T20:33:39.449Z,72.20
2018-10-16T20:36:07.871Z,73.00
2018-10-16T20:38:37.174Z,73.60
2018-10-16T20:41:05.795Z,73.80
2018-10-16T20:43:34.966Z,74.30
2018-10-16T20:46:03.469Z,75.30
2018-10-16T20:48:31.890Z,76.00
2018-10-16T20:51:00.449Z,76.30
2018-10-16T20:53:30.878Z,77.50
2018-10-16T20:55:59.504Z,77.80
2018-10-16T20:58:32.731Z,77.90
2018-10-16T21:01:02.380Z,78.30
2018-10-16T21:03:30.976Z,79.50
2018-10-16T21:06:00.452Z,79.50
2018-10-16T21:08:28.755Z,80.30
2018-10-16T21:10:58.162Z,80.40
2018-10-16T21:13:26.652Z,80.60
2018-10-16T21:15:55.331Z,80.60
2018-10-16T21:18:23.923Z,80.90
2018-10-16T21:20:52.446Z,80.50
2018-10-16T21:23:21.018Z,80.50
2018-10-16T21:25:49.507Z,79.60
2018-10-16T21:28:17.987Z,79.90
2018-10-16T21:30:46.855Z,81.50
2018-10-16T21:33:15.759Z,81.90
2018-10-16T21:35:44.753Z,82.00
2018-10-16T21:38:13.293Z,82.30
2018-10-16T21:40:45.150Z,82.10
2018-10-16T21:43:13.869Z,82.50
2018-10-16T21:45:43.151Z,82.90
2018-10-16T21:48:11.843Z,83.00
2018-10-16T21:50:40.123Z,82.90
2018-10-16T21:53:08.616Z,83.20
2018-10-16T21:55:37.032Z,83.20
2018-10-16T21:58:05.786Z,83.40
2018-10-16T22:00:38.854Z,83.30
2018-10-16T22:03:07.282Z,83.80
2018-10-16T22:05:35.840Z,83.80
2018-10-16T22:08:04.404Z,83.80
2018-10-16T22:10:32.799Z,84.30
2018-10-16T22:13:01.194Z,84.60
2018-10-16T22:15:29.653Z,84.80
2018-10-16T22:17:58.955Z,84.90
2018-10-16T22:20:27.610Z,85.00
2018-10-16T22:22:56.115Z,86.00
2018-10-16T22:25:24.807Z,86.80
2018-10-16T22:27:53.289Z,87.90
2018-10-16T22:30:21.919Z,87.70
2018-10-16T22:32:51.589Z,88.90
2018-10-16T22:35:20.027Z,90.10
2018-10-16T22:37:48.524Z,90.40
2018-10-16T22:40:16.954Z,90.60
2018-10-16T22:42:45.481Z,90.90
2018-10-16T22:45:14.026Z,90.80
2018-10-16T22:47:42.504Z,90.90
2018-10-16T22:50:12.755Z,90.90
2018-10-16T22:52:41.389Z,90.80
2018-10-16T22:55:10.496Z,91.20
2018-10-16T22:57:39.125Z,91.80
2018-10-16T23:00:13.857Z,91.90
2018-10-16T23:02:42.716Z,92.10
2018-10-16T23:05:11.162Z,92.50
2018-10-16T23:07:40.550Z,92.40
2018-10-16T23:10:09.004Z,92.20
2018-10-16T23:12:37.538Z,91.90
2018-10-16T23:15:10.886Z,91.50
2018-10-16T23:17:39.730Z,91.70
2018-10-16T23:20:09.338Z,91.90
2018-10-16T23:22:38.055Z,91.80
2018-10-16T23:25:06.617Z,91.30
2018-10-16T23:27:35.324Z,91.00
2018-10-16T23:30:03.922Z,91.00
2018-10-16T23:32:35.251Z,91.00
2018-10-16T23:35:04.172Z,91.00
2018-10-16T23:37:32.626Z,91.00
2018-10-16T23:40:01.098Z,91.20
2018-10-16T23:42:29.482Z,91.00
2018-10-16T23:44:57.879Z,91.10
2018-10-16T23:47:26.474Z,90.90
2018-10-16T23:49:54.924Z,91.30
2018-10-16T23:52:24.030Z,91.20
2018-10-16T23:54:52.516Z,91.20
2018-10-16T23:57:20.932Z,91.20
2018-10-16T23:59:49.339Z,91.00
